sensor_id;sensor_type;location;lat;lon;timestamp;P1;durP1;ratioP1;P2;durP2;ratioP2
32130;SDS011;18639;50.716;7.086;2023-03-01T00:00:49;2.03;;;1.10;;
32130;SDS011;18639;50.716;7.086;2023-03-01T00:03:15;2.10;;;1.10;;
32130;SDS011;18639;50.716;7.086;2023-03-01T00:05:43;1.83;;;1.00;;
32130;SDS011;18639;50.716;7.086;2023-03-01T00:08:10;2.22;;;1.40;;
32130;SDS011;18639;50.716;7.086;2023-03-01T00:10:35;4.25;;;1.23;;
32130;SDS011;18639;50.716;7.086;2023-03-01T00:13:00;2.63;;;0.95;;
32130;SDS011;18639;50.716;7.086;2023-03-01T00:15:26;2.10;;;1.27;;
32130;SDS011;18639;50.716;7.086;2023-03-01T00:17:51;2.45;;;1.42;;
32130;SDS011;18639;50.716;7.086;2023-03-01T00:20:16;2.55;;;1.17;;
32130;SDS011;18639;50.716;7.086;2023-03-01T00:22:41;1.83;;;1.02;;
32130;SDS011;18639;50.716;7.086;2023-03-01T00:25:07;3.67;;;1.05;;
32130;SDS011;18639;50.716;7.086;2023-03-01T00:27:32;1.80;;;1.23;;
32130;SDS011;18639;50.716;7.086;2023-03-01T00:29:58;2.45;;;1.00;;
32130;SDS011;18639;50.716;7.086;2023-03-01T00:32:23;2.13;;;1.38;;
32130;SDS011;18639;50.716;7.086;2023-03-01T00:34:48;5.55;;;1.85;;
32130;SDS011;18639;50.716;7.086;2023-03-01T00:37:22;1.88;;;1.30;;
32130;SDS011;18639;50.716;7.086;2023-03-01T00:39:48;2.03;;;1.23;;
32130;SDS011;18639;50.716;7.086;2023-03-01T00:42:13;3.30;;;1.23;;
32130;SDS011;18639;50.716;7.086;2023-03-01T00:44:39;1.45;;;0.93;;
32130;SDS011;18639;50.716;7.086;2023-03-01T00:47:04;3.30;;;1.60;;
32130;SDS011;18639;50.716;7.086;2023-03-01T00:49:29;4.28;;;1.30;;
32130;SDS011;18639;50.716;7.086;2023-03-01T00:51:55;2.55;;;1.40;;
32130;SDS011;18639;50.716;7.086;2023-03-01T00:54:20;1.25;;;1.05;;
32130;SDS011;18639;50.716;7.086;2023-03-01T00:56:45;3.35;;;1.45;;
32130;SDS011;18639;50.716;7.086;2023-03-01T00:59:11;3.00;;;1.27;;
32130;SDS011;18639;50.716;7.086;2023-03-01T01:01:36;2.25;;;1.30;;
32130;SDS011;18639;50.716;7.086;2023-03-01T01:04:03;1.65;;;1.30;;
32130;SDS011;18639;50.716;7.086;2023-03-01T01:06:35;2.25;;;1.23;;
32130;SDS011;18639;50.716;7.086;2023-03-01T01:09:03;2.22;;;1.20;;
32130;SDS011;18639;50.716;7.086;2023-03-01T01:11:29;2.58;;;1.30;;
32130;SDS011;18639;50.716;7.086;2023-03-01T01:13:56;2.78;;;1.65;;
32130;SDS011;18639;50.716;7.086;2023-03-01T01:16:23;1.50;;;0.80;;
32130;SDS011;18639;50.716;7.086;2023-03-01T01:18:50;2.42;;;1.00;;
32130;SDS011;18639;50.716;7.086;2023-03-01T01:21:17;1.92;;;1.48;;
32130;SDS011;18639;50.716;7.086;2023-03-01T01:23:44;2.70;;;1.40;;
32130;SDS011;18639;50.716;7.086;2023-03-01T01:26:14;3.08;;;1.30;;
32130;SDS011;18639;50.716;7.086;2023-03-01T01:28:41;3.00;;;1.40;;
32130;SDS011;18639;50.716;7.086;2023-03-01T01:31:07;3.28;;;1.40;;
32130;SDS011;18639;50.716;7.086;2023-03-01T01:33:33;6.53;;;1.02;;
32130;SDS011;18639;50.716;7.086;2023-03-01T01:35:59;2.97;;;1.30;;
32130;SDS011;18639;50.716;7.086;2023-03-01T01:38:24;5.05;;;1.17;;
32130;SDS011;18639;50.716;7.086;2023-03-01T01:40:50;2.83;;;1.27;;
32130;SDS011;18639;50.716;7.086;2023-03-01T01:43:18;2.97;;;1.20;;
32130;SDS011;18639;50.716;7.086;2023-03-01T01:45:46;2.33;;;1.45;;
32130;SDS011;18639;50.716;7.086;2023-03-01T01:48:13;0.52;;;0.52;;
32130;SDS011;18639;50.716;7.086;2023-03-01T01:50:44;1.85;;;1.15;;
32130;SDS011;18639;50.716;7.086;2023-03-01T01:53:13;1.67;;;1.05;;
32130;SDS011;18639;50.716;7.086;2023-03-01T01:55:43;1.58;;;0.77;;
32130;SDS011;18639;50.716;7.086;2023-03-01T01:58:13;1.83;;;1.08;;
32130;SDS011;18639;50.716;7.086;2023-03-01T02:00:42;4.40;;;1.77;;
32130;SDS011;18639;50.716;7.086;2023-03-01T02:03:10;1.52;;;1.38;;
32130;SDS011;18639;50.716;7.086;2023-03-01T02:08:19;2.22;;;1.13;;
32130;SDS011;18639;50.716;7.086;2023-03-01T02:10:46;2.95;;;1.38;;
32130;SDS011;18639;50.716;7.086;2023-03-01T02:13:14;2.85;;;1.40;;
32130;SDS011;18639;50.716;7.086;2023-03-01T02:15:40;3.33;;;1.80;;
32130;SDS011;18639;50.716;7.086;2023-03-01T02:18:06;2.33;;;1.38;;
32130;SDS011;18639;50.716;7.086;2023-03-01T02:23:27;1.83;;;1.48;;
32130;SDS011;18639;50.716;7.086;2023-03-01T02:25:55;1.17;;;1.05;;
32130;SDS011;18639;50.716;7.086;2023-03-01T02:28:35;1.92;;;1.10;;
32130;SDS011;18639;50.716;7.086;2023-03-01T02:31:03;3.38;;;1.58;;
32130;SDS011;18639;50.716;7.086;2023-03-01T02:33:49;1.40;;;1.00;;
32130;SDS011;18639;50.716;7.086;2023-03-01T02:36:15;0.88;;;0.75;;
32130;SDS011;18639;50.716;7.086;2023-03-01T02:38:44;1.35;;;0.95;;
32130;SDS011;18639;50.716;7.086;2023-03-01T02:41:11;2.42;;;1.13;;
32130;SDS011;18639;50.716;7.086;2023-03-01T02:43:39;1.67;;;1.10;;
32130;SDS011;18639;50.716;7.086;2023-03-01T02:46:07;1.48;;;0.98;;
32130;SDS011;18639;50.716;7.086;2023-03-01T02:48:44;5.55;;;0.93;;
32130;SDS011;18639;50.716;7.086;2023-03-01T02:57:16;0.60;;;0.60;;
32130;SDS011;18639;50.716;7.086;2023-03-01T02:59:43;0.98;;;0.80;;
32130;SDS011;18639;50.716;7.086;2023-03-01T03:02:25;1.25;;;1.10;;
32130;SDS011;18639;50.716;7.086;2023-03-01T03:05:07;1.98;;;0.88;;
32130;SDS011;18639;50.716;7.086;2023-03-01T03:07:35;1.70;;;1.15;;
32130;SDS011;18639;50.716;7.086;2023-03-01T03:10:02;0.70;;;0.70;;
32130;SDS011;18639;50.716;7.086;2023-03-01T03:12:29;1.65;;;1.40;;
32130;SDS011;18639;50.716;7.086;2023-03-01T03:14:55;3.13;;;1.02;;
32130;SDS011;18639;50.716;7.086;2023-03-01T03:17:20;1.73;;;0.63;;
32130;SDS011;18639;50.716;7.086;2023-03-01T03:19:45;5.25;;;0.90;;
32130;SDS011;18639;50.716;7.086;2023-03-01T03:22:11;1.50;;;0.65;;
32130;SDS011;18639;50.716;7.086;2023-03-01T03:24:37;2.15;;;0.75;;
32130;SDS011;18639;50.716;7.086;2023-03-01T03:27:06;1.00;;;0.90;;
32130;SDS011;18639;50.716;7.086;2023-03-01T03:29:32;2.60;;;0.93;;
32130;SDS011;18639;50.716;7.086;2023-03-01T03:31:57;1.25;;;1.08;;
32130;SDS011;18639;50.716;7.086;2023-03-01T03:34:23;2.20;;;0.75;;
32130;SDS011;18639;50.716;7.086;2023-03-01T03:36:52;1.23;;;0.98;;
32130;SDS011;18639;50.716;7.086;2023-03-01T03:39:21;0.63;;;0.63;;
32130;SDS011;18639;50.716;7.086;2023-03-01T03:41:47;1.25;;;1.02;;
32130;SDS011;18639;50.716;7.086;2023-03-01T03:44:13;1.50;;;0.68;;
32130;SDS011;18639;50.716;7.086;2023-03-01T03:46:38;1.25;;;0.95;;
32130;SDS011;18639;50.716;7.086;2023-03-01T03:49:03;0.90;;;0.90;;
32130;SDS011;18639;50.716;7.086;2023-03-01T03:51:28;3.55;;;1.13;;
32130;SDS011;18639;50.716;7.086;2023-03-01T03:53:54;1.90;;;1.20;;
32130;SDS011;18639;50.716;7.086;2023-03-01T03:56:19;0.85;;;0.60;;
32130;SDS011;18639;50.716;7.086;2023-03-01T03:58:44;2.75;;;1.00;;
32130;SDS011;18639;50.716;7.086;2023-03-01T04:01:10;1.25;;;0.90;;
32130;SDS011;18639;50.716;7.086;2023-03-01T04:03:35;0.90;;;0.82;;
32130;SDS011;18639;50.716;7.086;2023-03-01T04:06:00;2.35;;;1.20;;
32130;SDS011;18639;50.716;7.086;2023-03-01T04:08:26;2.85;;;0.90;;
32130;SDS011;18639;50.716;7.086;2023-03-01T04:10:56;1.30;;;0.88;;
32130;SDS011;18639;50.716;7.086;2023-03-01T04:13:23;1.88;;;1.08;;
32130;SDS011;18639;50.716;7.086;2023-03-01T04:15:50;0.60;;;0.60;;
32130;SDS011;18639;50.716;7.086;2023-03-01T04:18:17;0.60;;;0.60;;
32130;SDS011;18639;50.716;7.086;2023-03-01T04:20:44;2.95;;;1.10;;
32130;SDS011;18639;50.716;7.086;2023-03-01T04:23:11;1.08;;;0.90;;
32130;SDS011;18639;50.716;7.086;2023-03-01T04:28:19;0.70;;;0.60;;
32130;SDS011;18639;50.716;7.086;2023-03-01T04:30:52;2.05;;;0.85;;
32130;SDS011;18639;50.716;7.086;2023-03-01T04:33:19;1.13;;;1.02;;
32130;SDS011;18639;50.716;7.086;2023-03-01T04:35:45;1.25;;;0.75;;
32130;SDS011;18639;50.716;7.086;2023-03-01T04:38:10;2.17;;;0.82;;
32130;SDS011;18639;50.716;7.086;2023-03-01T04:40:36;1.48;;;1.27;;
32130;SDS011;18639;50.716;7.086;2023-03-01T04:43:02;1.00;;;1.00;;
32130;SDS011;18639;50.716;7.086;2023-03-01T04:45:28;0.68;;;0.68;;
32130;SDS011;18639;50.716;7.086;2023-03-01T04:47:53;0.90;;;0.90;;
32130;SDS011;18639;50.716;7.086;2023-03-01T04:50:19;2.97;;;1.20;;
32130;SDS011;18639;50.716;7.086;2023-03-01T04:52:45;4.50;;;0.65;;
32130;SDS011;18639;50.716;7.086;2023-03-01T04:55:11;1.13;;;0.90;;
32130;SDS011;18639;50.716;7.086;2023-03-01T04:57:38;0.90;;;0.90;;
32130;SDS011;18639;50.716;7.086;2023-03-01T05:00:04;0.68;;;0.68;;
32130;SDS011;18639;50.716;7.086;2023-03-01T05:02:55;1.50;;;0.90;;
32130;SDS011;18639;50.716;7.086;2023-03-01T05:07:53;0.77;;;0.77;;
32130;SDS011;18639;50.716;7.086;2023-03-01T05:10:19;2.50;;;1.45;;
32130;SDS011;18639;50.716;7.086;2023-03-01T05:12:44;3.10;;;1.13;;
32130;SDS011;18639;50.716;7.086;2023-03-01T05:15:10;1.05;;;0.95;;
32130;SDS011;18639;50.716;7.086;2023-03-01T05:17:35;3.70;;;1.27;;
32130;SDS011;18639;50.716;7.086;2023-03-01T05:20:00;1.50;;;0.90;;
32130;SDS011;18639;50.716;7.086;2023-03-01T05:22:26;1.08;;;0.80;;
32130;SDS011;18639;50.716;7.086;2023-03-01T05:24:51;0.68;;;0.68;;
32130;SDS011;18639;50.716;7.086;2023-03-01T05:27:18;2.25;;;0.98;;
32130;SDS011;18639;50.716;7.086;2023-03-01T05:29:47;1.05;;;0.95;;
32130;SDS011;18639;50.716;7.086;2023-03-01T05:32:12;4.85;;;0.80;;
32130;SDS011;18639;50.716;7.086;2023-03-01T05:34:40;1.20;;;0.82;;
32130;SDS011;18639;50.716;7.086;2023-03-01T05:37:05;2.97;;;1.05;;
32130;SDS011;18639;50.716;7.086;2023-03-01T05:39:32;0.90;;;0.80;;
32130;SDS011;18639;50.716;7.086;2023-03-01T05:41:59;1.17;;;1.00;;
32130;SDS011;18639;50.716;7.086;2023-03-01T05:44:26;0.57;;;0.57;;
32130;SDS011;18639;50.716;7.086;2023-03-01T05:46:52;1.35;;;0.73;;
32130;SDS011;18639;50.716;7.086;2023-03-01T05:49:18;3.35;;;1.70;;
32130;SDS011;18639;50.716;7.086;2023-03-01T05:51:49;1.33;;;0.88;;
32130;SDS011;18639;50.716;7.086;2023-03-01T05:54:16;0.73;;;0.73;;
32130;SDS011;18639;50.716;7.086;2023-03-01T05:56:42;0.65;;;0.52;;
32130;SDS011;18639;50.716;7.086;2023-03-01T05:59:08;1.80;;;0.85;;
32130;SDS011;18639;50.716;7.086;2023-03-01T06:01:34;1.02;;;0.93;;
32130;SDS011;18639;50.716;7.086;2023-03-01T06:04:01;4.00;;;1.00;;
32130;SDS011;18639;50.716;7.086;2023-03-01T06:06:27;1.88;;;0.88;;
32130;SDS011;18639;50.716;7.086;2023-03-01T06:08:53;1.00;;;0.88;;
32130;SDS011;18639;50.716;7.086;2023-03-01T06:11:18;1.15;;;1.05;;
32130;SDS011;18639;50.716;7.086;2023-03-01T06:13:44;0.40;;;0.40;;
32130;SDS011;18639;50.716;7.086;2023-03-01T06:16:10;1.23;;;0.82;;
32130;SDS011;18639;50.716;7.086;2023-03-01T06:18:36;2.35;;;1.20;;
32130;SDS011;18639;50.716;7.086;2023-03-01T06:21:02;1.13;;;0.70;;
32130;SDS011;18639;50.716;7.086;2023-03-01T06:23:28;1.95;;;1.33;;
32130;SDS011;18639;50.716;7.086;2023-03-01T06:25:53;3.45;;;1.15;;
32130;SDS011;18639;50.716;7.086;2023-03-01T06:28:18;0.40;;;0.40;;
32130;SDS011;18639;50.716;7.086;2023-03-01T06:30:44;4.35;;;1.15;;
32130;SDS011;18639;50.716;7.086;2023-03-01T06:33:09;3.75;;;1.48;;
32130;SDS011;18639;50.716;7.086;2023-03-01T06:35:34;1.75;;;0.80;;
32130;SDS011;18639;50.716;7.086;2023-03-01T06:38:00;2.55;;;1.10;;
32130;SDS011;18639;50.716;7.086;2023-03-01T06:40:27;2.45;;;1.67;;
32130;SDS011;18639;50.716;7.086;2023-03-01T06:42:52;1.48;;;1.15;;
32130;SDS011;18639;50.716;7.086;2023-03-01T06:45:18;0.68;;;0.68;;
32130;SDS011;18639;50.716;7.086;2023-03-01T06:47:45;2.53;;;0.93;;
32130;SDS011;18639;50.716;7.086;2023-03-01T06:50:11;2.05;;;1.05;;
32130;SDS011;18639;50.716;7.086;2023-03-01T06:52:37;0.80;;;0.80;;
32130;SDS011;18639;50.716;7.086;2023-03-01T06:55:03;1.10;;;0.80;;
32130;SDS011;18639;50.716;7.086;2023-03-01T06:57:29;2.83;;;0.75;;
32130;SDS011;18639;50.716;7.086;2023-03-01T06:59:54;1.20;;;1.10;;
32130;SDS011;18639;50.716;7.086;2023-03-01T07:02:20;2.45;;;0.82;;
32130;SDS011;18639;50.716;7.086;2023-03-01T07:04:45;0.60;;;0.60;;
32130;SDS011;18639;50.716;7.086;2023-03-01T07:07:10;1.55;;;0.65;;
32130;SDS011;18639;50.716;7.086;2023-03-01T07:09:36;1.20;;;1.10;;
32130;SDS011;18639;50.716;7.086;2023-03-01T07:12:01;3.63;;;1.23;;
32130;SDS011;18639;50.716;7.086;2023-03-01T07:14:27;1.77;;;1.17;;
32130;SDS011;18639;50.716;7.086;2023-03-01T07:16:53;1.15;;;1.05;;
32130;SDS011;18639;50.716;7.086;2023-03-01T07:19:18;2.00;;;1.33;;
32130;SDS011;18639;50.716;7.086;2023-03-01T07:21:44;1.27;;;0.90;;
32130;SDS011;18639;50.716;7.086;2023-03-01T07:24:09;2.30;;;1.05;;
32130;SDS011;18639;50.716;7.086;2023-03-01T07:26:35;1.92;;;1.02;;
32130;SDS011;18639;50.716;7.086;2023-03-01T07:29:01;3.15;;;0.77;;
32130;SDS011;18639;50.716;7.086;2023-03-01T07:31:28;6.22;;;0.90;;
32130;SDS011;18639;50.716;7.086;2023-03-01T07:33:54;1.27;;;1.00;;
32130;SDS011;18639;50.716;7.086;2023-03-01T07:36:20;1.38;;;1.05;;
32130;SDS011;18639;50.716;7.086;2023-03-01T07:38:45;2.40;;;1.23;;
32130;SDS011;18639;50.716;7.086;2023-03-01T07:41:10;1.70;;;1.05;;
32130;SDS011;18639;50.716;7.086;2023-03-01T07:43:36;1.27;;;1.05;;
32130;SDS011;18639;50.716;7.086;2023-03-01T07:46:01;3.20;;;1.50;;
32130;SDS011;18639;50.716;7.086;2023-03-01T07:48:27;1.58;;;0.98;;
32130;SDS011;18639;50.716;7.086;2023-03-01T07:50:53;1.98;;;1.25;;
32130;SDS011;18639;50.716;7.086;2023-03-01T07:53:18;3.72;;;1.33;;
32130;SDS011;18639;50.716;7.086;2023-03-01T07:55:43;4.70;;;1.65;;
32130;SDS011;18639;50.716;7.086;2023-03-01T07:58:09;3.67;;;1.60;;
32130;SDS011;18639;50.716;7.086;2023-03-01T08:00:34;1.38;;;0.90;;
32130;SDS011;18639;50.716;7.086;2023-03-01T08:02:59;1.63;;;0.98;;
32130;SDS011;18639;50.716;7.086;2023-03-01T08:05:28;2.97;;;1.17;;
32130;SDS011;18639;50.716;7.086;2023-03-01T08:07:54;4.22;;;1.63;;
32130;SDS011;18639;50.716;7.086;2023-03-01T08:10:19;2.00;;;1.10;;
32130;SDS011;18639;50.716;7.086;2023-03-01T08:12:45;5.13;;;1.92;;
32130;SDS011;18639;50.716;7.086;2023-03-01T08:15:10;10.93;;;2.10;;
32130;SDS011;18639;50.716;7.086;2023-03-01T08:17:36;3.70;;;1.85;;
32130;SDS011;18639;50.716;7.086;2023-03-01T08:20:01;8.18;;;2.42;;
32130;SDS011;18639;50.716;7.086;2023-03-01T08:22:28;7.18;;;2.45;;
32130;SDS011;18639;50.716;7.086;2023-03-01T08:24:53;4.50;;;2.50;;
32130;SDS011;18639;50.716;7.086;2023-03-01T08:27:20;5.70;;;2.28;;
32130;SDS011;18639;50.716;7.086;2023-03-01T08:29:46;7.05;;;2.50;;
32130;SDS011;18639;50.716;7.086;2023-03-01T08:32:11;5.88;;;2.25;;
32130;SDS011;18639;50.716;7.086;2023-03-01T08:34:36;5.70;;;2.38;;
32130;SDS011;18639;50.716;7.086;2023-03-01T08:37:02;7.78;;;2.17;;
32130;SDS011;18639;50.716;7.086;2023-03-01T08:39:27;4.85;;;2.15;;
32130;SDS011;18639;50.716;7.086;2023-03-01T08:41:52;5.82;;;2.15;;
32130;SDS011;18639;50.716;7.086;2023-03-01T08:44:22;9.23;;;2.20;;
32130;SDS011;18639;50.716;7.086;2023-03-01T08:46:48;7.22;;;2.67;;
32130;SDS011;18639;50.716;7.086;2023-03-01T08:49:15;7.88;;;2.80;;
32130;SDS011;18639;50.716;7.086;2023-03-01T08:51:43;4.03;;;2.25;;
32130;SDS011;18639;50.716;7.086;2023-03-01T08:54:10;6.53;;;3.10;;
32130;SDS011;18639;50.716;7.086;2023-03-01T08:56:37;6.65;;;2.42;;
32130;SDS011;18639;50.716;7.086;2023-03-01T08:59:04;8.32;;;3.22;;
32130;SDS011;18639;50.716;7.086;2023-03-01T09:01:29;9.65;;;2.90;;
32130;SDS011;18639;50.716;7.086;2023-03-01T09:03:55;5.45;;;2.13;;
32130;SDS011;18639;50.716;7.086;2023-03-01T09:06:20;10.65;;;2.88;;
32130;SDS011;18639;50.716;7.086;2023-03-01T09:08:46;6.30;;;2.97;;
32130;SDS011;18639;50.716;7.086;2023-03-01T09:11:14;6.90;;;2.88;;
32130;SDS011;18639;50.716;7.086;2023-03-01T09:13:41;11.70;;;3.58;;
32130;SDS011;18639;50.716;7.086;2023-03-01T09:16:07;7.88;;;3.50;;
32130;SDS011;18639;50.716;7.086;2023-03-01T09:18:34;7.97;;;3.28;;
32130;SDS011;18639;50.716;7.086;2023-03-01T09:21:01;11.52;;;3.67;;
32130;SDS011;18639;50.716;7.086;2023-03-01T09:23:32;8.32;;;3.60;;
32130;SDS011;18639;50.716;7.086;2023-03-01T09:25:58;10.73;;;3.85;;
32130;SDS011;18639;50.716;7.086;2023-03-01T09:28:23;7.88;;;3.42;;
32130;SDS011;18639;50.716;7.086;2023-03-01T09:30:53;10.73;;;3.33;;
32130;SDS011;18639;50.716;7.086;2023-03-01T09:33:18;8.23;;;3.08;;
32130;SDS011;18639;50.716;7.086;2023-03-01T09:35:43;11.95;;;3.58;;
32130;SDS011;18639;50.716;7.086;2023-03-01T09:38:12;9.05;;;3.53;;
32130;SDS011;18639;50.716;7.086;2023-03-01T09:40:41;8.43;;;3.25;;
32130;SDS011;18639;50.716;7.086;2023-03-01T09:43:12;9.15;;;3.72;;
32130;SDS011;18639;50.716;7.086;2023-03-01T09:45:43;7.63;;;3.20;;
32130;SDS011;18639;50.716;7.086;2023-03-01T09:48:16;9.50;;;4.18;;
32130;SDS011;18639;50.716;7.086;2023-03-01T09:50:43;9.40;;;3.50;;
32130;SDS011;18639;50.716;7.086;2023-03-01T09:53:15;8.57;;;3.78;;
32130;SDS011;18639;50.716;7.086;2023-03-01T09:55:59;8.10;;;3.20;;
32130;SDS011;18639;50.716;7.086;2023-03-01T09:58:46;9.30;;;3.55;;
32130;SDS011;18639;50.716;7.086;2023-03-01T10:01:29;7.07;;;2.90;;
32130;SDS011;18639;50.716;7.086;2023-03-01T10:07:20;6.47;;;3.10;;
32130;SDS011;18639;50.716;7.086;2023-03-01T10:09:53;5.90;;;3.28;;
32130;SDS011;18639;50.716;7.086;2023-03-01T10:12:19;7.22;;;3.50;;
32130;SDS011;18639;50.716;7.086;2023-03-01T10:17:32;8.07;;;3.25;;
32130;SDS011;18639;50.716;7.086;2023-03-01T10:20:25;8.02;;;3.10;;
32130;SDS011;18639;50.716;7.086;2023-03-01T10:23:09;10.18;;;3.15;;
32130;SDS011;18639;50.716;7.086;2023-03-01T10:25:39;8.68;;;3.05;;
32130;SDS011;18639;50.716;7.086;2023-03-01T10:28:31;7.30;;;2.85;;
32130;SDS011;18639;50.716;7.086;2023-03-01T10:31:03;6.78;;;2.95;;
32130;SDS011;18639;50.716;7.086;2023-03-01T10:33:29;7.90;;;2.83;;
32130;SDS011;18639;50.716;7.086;2023-03-01T10:35:57;8.05;;;2.83;;
32130;SDS011;18639;50.716;7.086;2023-03-01T10:38:23;9.18;;;3.40;;
32130;SDS011;18639;50.716;7.086;2023-03-01T10:40:55;9.25;;;3.08;;
32130;SDS011;18639;50.716;7.086;2023-03-01T10:49:14;7.30;;;3.00;;
32130;SDS011;18639;50.716;7.086;2023-03-01T10:51:42;10.55;;;3.20;;
32130;SDS011;18639;50.716;7.086;2023-03-01T10:54:16;9.73;;;3.30;;
32130;SDS011;18639;50.716;7.086;2023-03-01T10:56:45;9.15;;;3.40;;
32130;SDS011;18639;50.716;7.086;2023-03-01T10:59:20;11.05;;;3.10;;
32130;SDS011;18639;50.716;7.086;2023-03-01T11:02:00;9.15;;;2.90;;
32130;SDS011;18639;50.716;7.086;2023-03-01T11:04:59;8.15;;;2.92;;
32130;SDS011;18639;50.716;7.086;2023-03-01T11:07:25;6.57;;;2.70;;
32130;SDS011;18639;50.716;7.086;2023-03-01T11:09:51;7.47;;;3.17;;
32130;SDS011;18639;50.716;7.086;2023-03-01T11:12:17;6.03;;;2.97;;
32130;SDS011;18639;50.716;7.086;2023-03-01T11:14:46;11.85;;;2.78;;
32130;SDS011;18639;50.716;7.086;2023-03-01T11:17:29;7.43;;;2.60;;
32130;SDS011;18639;50.716;7.086;2023-03-01T11:20:31;6.20;;;2.20;;
32130;SDS011;18639;50.716;7.086;2023-03-01T11:22:55;7.15;;;2.58;;
32130;SDS011;18639;50.716;7.086;2023-03-01T11:25:25;6.25;;;2.53;;
32130;SDS011;18639;50.716;7.086;2023-03-01T11:27:53;5.60;;;2.90;;
32130;SDS011;18639;50.716;7.086;2023-03-01T11:30:27;7.38;;;3.00;;
32130;SDS011;18639;50.716;7.086;2023-03-01T11:36:13;7.53;;;2.47;;
32130;SDS011;18639;50.716;7.086;2023-03-01T11:38:35;4.35;;;1.92;;
32130;SDS011;18639;50.716;7.086;2023-03-01T11:41:08;7.05;;;2.55;;
32130;SDS011;18639;50.716;7.086;2023-03-01T11:43:58;5.57;;;2.50;;
32130;SDS011;18639;50.716;7.086;2023-03-01T11:46:34;7.45;;;2.45;;
32130;SDS011;18639;50.716;7.086;2023-03-01T11:55:39;4.60;;;2.00;;
32130;SDS011;18639;50.716;7.086;2023-03-01T12:01:15;4.97;;;2.10;;
32130;SDS011;18639;50.716;7.086;2023-03-01T12:06:50;7.30;;;2.15;;
32130;SDS011;18639;50.716;7.086;2023-03-01T12:09:36;4.43;;;2.38;;
32130;SDS011;18639;50.716;7.086;2023-03-01T12:12:13;9.05;;;2.70;;
32130;SDS011;18639;50.716;7.086;2023-03-01T12:20:22;6.38;;;2.25;;
32130;SDS011;18639;50.716;7.086;2023-03-01T12:25:39;4.22;;;1.58;;
32130;SDS011;18639;50.716;7.086;2023-03-01T12:28:33;6.85;;;2.10;;
32130;SDS011;18639;50.716;7.086;2023-03-01T12:31:15;2.38;;;1.80;;
32130;SDS011;18639;50.716;7.086;2023-03-01T12:34:03;5.68;;;2.13;;
32130;SDS011;18639;50.716;7.086;2023-03-01T12:36:49;7.55;;;1.77;;
32130;SDS011;18639;50.716;7.086;2023-03-01T12:47:50;5.25;;;1.88;;
32130;SDS011;18639;50.716;7.086;2023-03-01T12:50:38;6.47;;;2.13;;
32130;SDS011;18639;50.716;7.086;2023-03-01T12:53:28;3.53;;;1.70;;
32130;SDS011;18639;50.716;7.086;2023-03-01T12:56:00;3.40;;;1.67;;
32130;SDS011;18639;50.716;7.086;2023-03-01T13:04:21;5.07;;;2.05;;
32130;SDS011;18639;50.716;7.086;2023-03-01T13:07:03;6.90;;;2.55;;
32130;SDS011;18639;50.716;7.086;2023-03-01T13:15:33;6.30;;;2.05;;
32130;SDS011;18639;50.716;7.086;2023-03-01T13:18:02;8.00;;;1.75;;
32130;SDS011;18639;50.716;7.086;2023-03-01T13:20:46;6.57;;;2.25;;
32130;SDS011;18639;50.716;7.086;2023-03-01T13:26:17;4.30;;;2.22;;
32130;SDS011;18639;50.716;7.086;2023-03-01T13:28:53;5.80;;;1.90;;
32130;SDS011;18639;50.716;7.086;2023-03-01T13:34:01;7.72;;;2.30;;
32130;SDS011;18639;50.716;7.086;2023-03-01T13:47:15;5.47;;;2.10;;
32130;SDS011;18639;50.716;7.086;2023-03-01T13:49:47;8.18;;;2.25;;
32130;SDS011;18639;50.716;7.086;2023-03-01T13:55:05;4.18;;;2.08;;
32130;SDS011;18639;50.716;7.086;2023-03-01T13:57:42;6.35;;;2.03;;
32130;SDS011;18639;50.716;7.086;2023-03-01T14:03:13;5.70;;;2.20;;
32130;SDS011;18639;50.716;7.086;2023-03-01T14:05:41;3.88;;;1.95;;
32130;SDS011;18639;50.716;7.086;2023-03-01T14:08:22;4.60;;;2.05;;
32130;SDS011;18639;50.716;7.086;2023-03-01T14:13:51;4.00;;;1.75;;
32130;SDS011;18639;50.716;7.086;2023-03-01T14:19:23;6.03;;;1.75;;
32130;SDS011;18639;50.716;7.086;2023-03-01T14:24:46;5.40;;;1.95;;
32130;SDS011;18639;50.716;7.086;2023-03-01T14:27:14;8.90;;;2.40;;
32130;SDS011;18639;50.716;7.086;2023-03-01T14:29:40;4.50;;;2.13;;
32130;SDS011;18639;50.716;7.086;2023-03-01T14:32:17;3.83;;;1.67;;
32130;SDS011;18639;50.716;7.086;2023-03-01T14:34:46;2.65;;;1.33;;
32130;SDS011;18639;50.716;7.086;2023-03-01T14:37:29;2.95;;;1.50;;
32130;SDS011;18639;50.716;7.086;2023-03-01T14:39:57;5.15;;;1.90;;
32130;SDS011;18639;50.716;7.086;2023-03-01T14:42:24;3.88;;;1.73;;
32130;SDS011;18639;50.716;7.086;2023-03-01T14:44:53;3.70;;;1.83;;
32130;SDS011;18639;50.716;7.086;2023-03-01T14:50:00;4.35;;;1.75;;
32130;SDS011;18639;50.716;7.086;2023-03-01T14:52:39;4.05;;;1.92;;
32130;SDS011;18639;50.716;7.086;2023-03-01T14:55:10;3.95;;;1.58;;
32130;SDS011;18639;50.716;7.086;2023-03-01T14:57:45;5.68;;;1.92;;
32130;SDS011;18639;50.716;7.086;2023-03-01T15:00:24;5.95;;;1.92;;
32130;SDS011;18639;50.716;7.086;2023-03-01T15:02:54;4.85;;;1.70;;
32130;SDS011;18639;50.716;7.086;2023-03-01T15:05:25;3.03;;;1.75;;
32130;SDS011;18639;50.716;7.086;2023-03-01T15:07:54;4.35;;;1.67;;
32130;SDS011;18639;50.716;7.086;2023-03-01T15:10:23;3.58;;;1.60;;
32130;SDS011;18639;50.716;7.086;2023-03-01T15:12:50;4.93;;;1.50;;
32130;SDS011;18639;50.716;7.086;2023-03-01T15:15:31;3.30;;;1.27;;
32130;SDS011;18639;50.716;7.086;2023-03-01T15:18:00;3.70;;;1.73;;
32130;SDS011;18639;50.716;7.086;2023-03-01T15:20:29;3.70;;;1.38;;
32130;SDS011;18639;50.716;7.086;2023-03-01T15:22:57;6.45;;;1.67;;
32130;SDS011;18639;50.716;7.086;2023-03-01T15:25:26;2.63;;;1.42;;
32130;SDS011;18639;50.716;7.086;2023-03-01T15:27:54;3.78;;;1.60;;
32130;SDS011;18639;50.716;7.086;2023-03-01T15:30:22;4.75;;;1.50;;
32130;SDS011;18639;50.716;7.086;2023-03-01T15:35:46;3.80;;;2.05;;
32130;SDS011;18639;50.716;7.086;2023-03-01T15:41:24;4.03;;;1.90;;
32130;SDS011;18639;50.716;7.086;2023-03-01T15:43:51;4.47;;;2.00;;
32130;SDS011;18639;50.716;7.086;2023-03-01T15:48:57;3.83;;;1.67;;
32130;SDS011;18639;50.716;7.086;2023-03-01T15:51:32;4.53;;;1.50;;
32130;SDS011;18639;50.716;7.086;2023-03-01T15:54:00;4.32;;;1.83;;
32130;SDS011;18639;50.716;7.086;2023-03-01T15:56:29;3.25;;;1.55;;
32130;SDS011;18639;50.716;7.086;2023-03-01T15:58:58;5.63;;;1.40;;
32130;SDS011;18639;50.716;7.086;2023-03-01T16:01:24;3.38;;;1.50;;
32130;SDS011;18639;50.716;7.086;2023-03-01T16:03:50;2.45;;;1.30;;
32130;SDS011;18639;50.716;7.086;2023-03-01T16:06:15;3.13;;;1.33;;
32130;SDS011;18639;50.716;7.086;2023-03-01T16:08:41;2.35;;;1.10;;
32130;SDS011;18639;50.716;7.086;2023-03-01T16:11:14;2.00;;;1.27;;
32130;SDS011;18639;50.716;7.086;2023-03-01T16:13:42;2.97;;;1.40;;
32130;SDS011;18639;50.716;7.086;2023-03-01T16:16:09;5.03;;;1.60;;
32130;SDS011;18639;50.716;7.086;2023-03-01T16:18:37;4.53;;;1.50;;
32130;SDS011;18639;50.716;7.086;2023-03-01T16:21:03;1.92;;;1.17;;
32130;SDS011;18639;50.716;7.086;2023-03-01T16:23:29;3.03;;;1.15;;
32130;SDS011;18639;50.716;7.086;2023-03-01T16:25:54;2.55;;;1.05;;
32130;SDS011;18639;50.716;7.086;2023-03-01T16:28:24;2.30;;;1.25;;
32130;SDS011;18639;50.716;7.086;2023-03-01T16:30:49;3.35;;;1.67;;
32130;SDS011;18639;50.716;7.086;2023-03-01T16:33:15;5.45;;;2.15;;
32130;SDS011;18639;50.716;7.086;2023-03-01T16:35:41;4.50;;;1.95;;
32130;SDS011;18639;50.716;7.086;2023-03-01T16:38:06;2.90;;;1.58;;
32130;SDS011;18639;50.716;7.086;2023-03-01T16:40:32;3.75;;;1.88;;
32130;SDS011;18639;50.716;7.086;2023-03-01T16:42:57;3.35;;;1.83;;
32130;SDS011;18639;50.716;7.086;2023-03-01T16:45:26;5.40;;;1.95;;
32130;SDS011;18639;50.716;7.086;2023-03-01T16:47:53;6.90;;;2.22;;
32130;SDS011;18639;50.716;7.086;2023-03-01T16:50:18;9.15;;;1.77;;
32130;SDS011;18639;50.716;7.086;2023-03-01T16:52:44;4.65;;;2.08;;